sensor_id;sensor_type;location;lat;lon;timestamp;P1;durP1;ratioP1;P2;durP2;ratioP2
11121;SDS011;5615;49.304;10.576;2022-09-04T00:01:44;16.90;;;11.93;;
11121;SDS011;5615;49.304;10.576;2022-09-04T00:04:21;15.63;;;11.00;;
11121;SDS011;5615;49.304;10.576;2022-09-04T00:07:04;17.83;;;11.77;;
11121;SDS011;5615;49.304;10.576;2022-09-04T00:09:39;21.70;;;13.43;;
11121;SDS011;5615;49.304;10.576;2022-09-04T00:12:13;17.57;;;12.57;;
11121;SDS011;5615;49.304;10.576;2022-09-04T00:14:48;16.07;;;11.93;;
11121;SDS011;5615;49.304;10.576;2022-09-04T00:17:22;17.57;;;12.10;;
11121;SDS011;5615;49.304;10.576;2022-09-04T00:19:54;17.63;;;12.23;;
11121;SDS011;5615;49.304;10.576;2022-09-04T00:22:28;16.40;;;10.63;;
11121;SDS011;5615;49.304;10.576;2022-09-04T00:25:02;13.50;;;11.20;;
11121;SDS011;5615;49.304;10.576;2022-09-04T00:27:37;11.23;;;9.83;;
11121;SDS011;5615;49.304;10.576;2022-09-04T00:30:10;12.57;;;11.17;;
11121;SDS011;5615;49.304;10.576;2022-09-04T00:32:42;15.70;;;11.77;;
11121;SDS011;5615;49.304;10.576;2022-09-04T00:35:16;17.07;;;11.57;;
11121;SDS011;5615;49.304;10.576;2022-09-04T00:37:48;17.37;;;11.27;;
11121;SDS011;5615;49.304;10.576;2022-09-04T00:40:23;12.60;;;10.87;;
11121;SDS011;5615;49.304;10.576;2022-09-04T00:43:09;15.80;;;10.80;;
11121;SDS011;5615;49.304;10.576;2022-09-04T00:45:56;16.37;;;11.63;;
11121;SDS011;5615;49.304;10.576;2022-09-04T00:48:39;14.80;;;11.07;;
11121;SDS011;5615;49.304;10.576;2022-09-04T00:51:31;17.23;;;12.00;;
11121;SDS011;5615;49.304;10.576;2022-09-04T00:57:06;17.50;;;12.23;;
11121;SDS011;5615;49.304;10.576;2022-09-04T01:00:03;17.37;;;12.10;;
11121;SDS011;5615;49.304;10.576;2022-09-04T01:02:37;18.30;;;12.57;;
11121;SDS011;5615;49.304;10.576;2022-09-04T01:05:27;19.43;;;12.77;;
11121;SDS011;5615;49.304;10.576;2022-09-04T01:08:05;16.20;;;12.13;;
11121;SDS011;5615;49.304;10.576;2022-09-04T01:10:40;20.30;;;11.10;;
11121;SDS011;5615;49.304;10.576;2022-09-04T01:13:17;17.13;;;11.73;;
11121;SDS011;5615;49.304;10.576;2022-09-04T01:15:54;17.83;;;13.27;;
11121;SDS011;5615;49.304;10.576;2022-09-04T01:18:25;22.10;;;14.30;;
11121;SDS011;5615;49.304;10.576;2022-09-04T01:24:16;20.60;;;13.60;;
11121;SDS011;5615;49.304;10.576;2022-09-04T01:26:53;20.97;;;14.13;;
11121;SDS011;5615;49.304;10.576;2022-09-04T01:29:27;20.53;;;13.70;;
11121;SDS011;5615;49.304;10.576;2022-09-04T01:32:06;21.93;;;13.90;;
11121;SDS011;5615;49.304;10.576;2022-09-04T01:34:38;26.57;;;14.43;;
11121;SDS011;5615;49.304;10.576;2022-09-04T01:37:19;20.37;;;13.20;;
11121;SDS011;5615;49.304;10.576;2022-09-04T01:40:03;23.03;;;13.43;;
11121;SDS011;5615;49.304;10.576;2022-09-04T01:42:46;19.90;;;12.93;;
11121;SDS011;5615;49.304;10.576;2022-09-04T01:45:23;22.53;;;12.93;;
11121;SDS011;5615;49.304;10.576;2022-09-04T01:47:55;21.30;;;12.53;;
11121;SDS011;5615;49.304;10.576;2022-09-04T01:50:28;22.67;;;13.07;;
11121;SDS011;5615;49.304;10.576;2022-09-04T01:52:57;21.23;;;14.10;;
11121;SDS011;5615;49.304;10.576;2022-09-04T01:55:32;19.60;;;13.37;;
11121;SDS011;5615;49.304;10.576;2022-09-04T01:58:08;18.90;;;13.13;;
11121;SDS011;5615;49.304;10.576;2022-09-04T02:00:42;15.97;;;12.23;;
11121;SDS011;5615;49.304;10.576;2022-09-04T02:03:20;18.17;;;11.63;;
11121;SDS011;5615;49.304;10.576;2022-09-04T02:05:55;16.70;;;12.63;;
11121;SDS011;5615;49.304;10.576;2022-09-04T02:08:35;18.03;;;11.43;;
11121;SDS011;5615;49.304;10.576;2022-09-04T02:11:12;18.43;;;12.27;;
11121;SDS011;5615;49.304;10.576;2022-09-04T02:13:46;18.97;;;11.87;;
11121;SDS011;5615;49.304;10.576;2022-09-04T02:16:36;18.07;;;12.30;;
11121;SDS011;5615;49.304;10.576;2022-09-04T02:19:15;15.07;;;10.27;;
11121;SDS011;5615;49.304;10.576;2022-09-04T02:21:55;15.07;;;10.43;;
11121;SDS011;5615;49.304;10.576;2022-09-04T02:24:29;18.37;;;10.70;;
11121;SDS011;5615;49.304;10.576;2022-09-04T02:27:04;12.70;;;9.40;;
11121;SDS011;5615;49.304;10.576;2022-09-04T02:29:38;11.13;;;9.23;;
11121;SDS011;5615;49.304;10.576;2022-09-04T02:32:12;10.90;;;9.10;;
11121;SDS011;5615;49.304;10.576;2022-09-04T02:34:45;10.93;;;8.00;;
11121;SDS011;5615;49.304;10.576;2022-09-04T02:37:20;10.30;;;8.40;;
11121;SDS011;5615;49.304;10.576;2022-09-04T02:39:55;8.93;;;7.83;;
11121;SDS011;5615;49.304;10.576;2022-09-04T02:42:29;9.17;;;7.40;;
11121;SDS011;5615;49.304;10.576;2022-09-04T02:45:08;8.83;;;7.40;;
11121;SDS011;5615;49.304;10.576;2022-09-04T02:47:46;9.13;;;7.23;;
11121;SDS011;5615;49.304;10.576;2022-09-04T02:50:20;9.60;;;8.53;;
11121;SDS011;5615;49.304;10.576;2022-09-04T02:53:06;12.33;;;8.20;;
11121;SDS011;5615;49.304;10.576;2022-09-04T02:55:44;9.47;;;7.70;;
11121;SDS011;5615;49.304;10.576;2022-09-04T02:58:22;12.23;;;8.27;;
11121;SDS011;5615;49.304;10.576;2022-09-04T03:01:10;9.97;;;8.40;;
11121;SDS011;5615;49.304;10.576;2022-09-04T03:03:45;9.70;;;8.70;;
11121;SDS011;5615;49.304;10.576;2022-09-04T03:06:17;10.50;;;8.50;;
11121;SDS011;5615;49.304;10.576;2022-09-04T03:08:50;9.77;;;7.93;;
11121;SDS011;5615;49.304;10.576;2022-09-04T03:11:22;13.33;;;9.37;;
11121;SDS011;5615;49.304;10.576;2022-09-04T03:13:58;17.30;;;9.13;;
11121;SDS011;5615;49.304;10.576;2022-09-04T03:16:31;11.63;;;8.73;;
11121;SDS011;5615;49.304;10.576;2022-09-04T03:19:03;12.70;;;8.53;;
11121;SDS011;5615;49.304;10.576;2022-09-04T03:21:40;11.73;;;8.70;;
11121;SDS011;5615;49.304;10.576;2022-09-04T03:24:12;14.27;;;9.50;;
11121;SDS011;5615;49.304;10.576;2022-09-04T03:26:47;12.53;;;9.43;;
11121;SDS011;5615;49.304;10.576;2022-09-04T03:29:20;15.33;;;10.27;;
11121;SDS011;5615;49.304;10.576;2022-09-04T03:31:59;13.13;;;10.20;;
11121;SDS011;5615;49.304;10.576;2022-09-04T03:34:35;13.07;;;10.27;;
11121;SDS011;5615;49.304;10.576;2022-09-04T03:37:16;13.33;;;10.67;;
11121;SDS011;5615;49.304;10.576;2022-09-04T03:39:53;13.97;;;10.50;;
11121;SDS011;5615;49.304;10.576;2022-09-04T03:42:33;13.43;;;9.50;;
11121;SDS011;5615;49.304;10.576;2022-09-04T03:45:09;12.40;;;9.73;;
11121;SDS011;5615;49.304;10.576;2022-09-04T03:47:46;12.73;;;9.80;;
11121;SDS011;5615;49.304;10.576;2022-09-04T03:50:26;13.93;;;10.20;;
11121;SDS011;5615;49.304;10.576;2022-09-04T03:53:00;14.37;;;10.27;;
11121;SDS011;5615;49.304;10.576;2022-09-04T03:55:51;17.33;;;10.80;;
11121;SDS011;5615;49.304;10.576;2022-09-04T03:58:32;18.57;;;11.70;;
11121;SDS011;5615;49.304;10.576;2022-09-04T04:01:09;16.70;;;11.37;;
11121;SDS011;5615;49.304;10.576;2022-09-04T04:03:50;15.83;;;10.83;;
11121;SDS011;5615;49.304;10.576;2022-09-04T04:06:31;18.73;;;10.77;;
11121;SDS011;5615;49.304;10.576;2022-09-04T04:09:15;13.83;;;10.17;;
11121;SDS011;5615;49.304;10.576;2022-09-04T04:12:08;14.23;;;10.50;;
11121;SDS011;5615;49.304;10.576;2022-09-04T04:14:49;14.33;;;10.13;;
11121;SDS011;5615;49.304;10.576;2022-09-04T04:17:37;13.27;;;9.60;;
11121;SDS011;5615;49.304;10.576;2022-09-04T04:20:26;12.87;;;10.03;;
11121;SDS011;5615;49.304;10.576;2022-09-04T04:23:18;13.00;;;9.53;;
11121;SDS011;5615;49.304;10.576;2022-09-04T04:26:12;16.13;;;10.63;;
11121;SDS011;5615;49.304;10.576;2022-09-04T04:28:53;12.20;;;10.30;;
11121;SDS011;5615;49.304;10.576;2022-09-04T04:31:36;14.67;;;10.07;;
11121;SDS011;5615;49.304;10.576;2022-09-04T04:34:14;18.27;;;10.57;;
11121;SDS011;5615;49.304;10.576;2022-09-04T04:36:50;14.07;;;10.37;;
11121;SDS011;5615;49.304;10.576;2022-09-04T04:39:23;13.33;;;10.37;;
11121;SDS011;5615;49.304;10.576;2022-09-04T04:41:59;16.80;;;10.27;;
11121;SDS011;5615;49.304;10.576;2022-09-04T04:44:46;15.23;;;10.43;;
11121;SDS011;5615;49.304;10.576;2022-09-04T04:47:53;14.70;;;9.47;;
11121;SDS011;5615;49.304;10.576;2022-09-04T04:50:37;12.87;;;9.60;;
11121;SDS011;5615;49.304;10.576;2022-09-04T04:53:15;15.17;;;9.70;;
11121;SDS011;5615;49.304;10.576;2022-09-04T04:55:52;13.00;;;9.63;;
11121;SDS011;5615;49.304;10.576;2022-09-04T04:58:40;14.50;;;10.43;;
11121;SDS011;5615;49.304;10.576;2022-09-04T05:01:22;13.80;;;10.23;;
11121;SDS011;5615;49.304;10.576;2022-09-04T05:03:59;14.27;;;10.40;;
11121;SDS011;5615;49.304;10.576;2022-09-04T05:06:34;14.47;;;10.30;;
11121;SDS011;5615;49.304;10.576;2022-09-04T05:09:10;13.07;;;10.20;;
11121;SDS011;5615;49.304;10.576;2022-09-04T05:11:42;13.80;;;9.93;;
11121;SDS011;5615;49.304;10.576;2022-09-04T05:14:22;12.10;;;9.90;;
11121;SDS011;5615;49.304;10.576;2022-09-04T05:16:56;11.20;;;9.03;;
11121;SDS011;5615;49.304;10.576;2022-09-04T05:19:31;13.67;;;10.17;;
11121;SDS011;5615;49.304;10.576;2022-09-04T05:22:04;12.80;;;10.17;;
11121;SDS011;5615;49.304;10.576;2022-09-04T05:24:46;12.43;;;9.07;;
11121;SDS011;5615;49.304;10.576;2022-09-04T05:27:27;11.13;;;8.73;;
11121;SDS011;5615;49.304;10.576;2022-09-04T05:30:04;9.60;;;7.40;;
11121;SDS011;5615;49.304;10.576;2022-09-04T05:32:34;9.13;;;7.00;;
11121;SDS011;5615;49.304;10.576;2022-09-04T05:35:05;7.43;;;6.73;;
11121;SDS011;5615;49.304;10.576;2022-09-04T05:37:41;7.23;;;6.53;;
11121;SDS011;5615;49.304;10.576;2022-09-04T05:40:20;7.80;;;6.83;;
11121;SDS011;5615;49.304;10.576;2022-09-04T05:42:57;7.37;;;6.67;;
11121;SDS011;5615;49.304;10.576;2022-09-04T05:45:34;6.80;;;6.10;;
11121;SDS011;5615;49.304;10.576;2022-09-04T05:48:15;8.10;;;6.13;;
11121;SDS011;5615;49.304;10.576;2022-09-04T05:50:54;6.87;;;5.90;;
11121;SDS011;5615;49.304;10.576;2022-09-04T05:53:34;6.40;;;5.80;;
11121;SDS011;5615;49.304;10.576;2022-09-04T05:59:17;7.13;;;5.97;;
11121;SDS011;5615;49.304;10.576;2022-09-04T06:02:26;6.17;;;5.57;;
11121;SDS011;5615;49.304;10.576;2022-09-04T06:07:58;5.90;;;5.30;;
11121;SDS011;5615;49.304;10.576;2022-09-04T06:10:34;5.90;;;5.40;;
11121;SDS011;5615;49.304;10.576;2022-09-04T06:13:22;6.60;;;5.17;;
11121;SDS011;5615;49.304;10.576;2022-09-04T06:16:19;6.13;;;5.53;;
11121;SDS011;5615;49.304;10.576;2022-09-04T06:19:02;5.83;;;5.33;;
11121;SDS011;5615;49.304;10.576;2022-09-04T06:24:49;7.37;;;6.67;;
11121;SDS011;5615;49.304;10.576;2022-09-04T06:27:33;7.93;;;6.70;;
11121;SDS011;5615;49.304;10.576;2022-09-04T06:30:09;8.53;;;6.97;;
11121;SDS011;5615;49.304;10.576;2022-09-04T06:32:46;7.13;;;6.47;;
11121;SDS011;5615;49.304;10.576;2022-09-04T06:35:33;10.63;;;6.57;;
11121;SDS011;5615;49.304;10.576;2022-09-04T06:38:15;7.47;;;6.37;;
11121;SDS011;5615;49.304;10.576;2022-09-04T06:40:54;7.60;;;6.90;;
11121;SDS011;5615;49.304;10.576;2022-09-04T06:43:34;8.33;;;7.40;;
11121;SDS011;5615;49.304;10.576;2022-09-04T06:46:12;6.60;;;6.00;;
11121;SDS011;5615;49.304;10.576;2022-09-04T06:48:51;7.40;;;6.70;;
11121;SDS011;5615;49.304;10.576;2022-09-04T06:51:32;6.78;;;5.97;;
11121;SDS011;5615;49.304;10.576;2022-09-04T06:54:10;7.47;;;6.78;;
11121;SDS011;5615;49.304;10.576;2022-09-04T06:56:48;7.95;;;6.43;;
11121;SDS011;5615;49.304;10.576;2022-09-04T06:59:47;7.57;;;6.85;;
11121;SDS011;5615;49.304;10.576;2022-09-04T07:02:32;6.63;;;6.03;;
11121;SDS011;5615;49.304;10.576;2022-09-04T07:05:21;8.57;;;7.60;;
11121;SDS011;5615;49.304;10.576;2022-09-04T07:07:56;8.90;;;8.00;;
11121;SDS011;5615;49.304;10.576;2022-09-04T07:10:34;10.10;;;9.10;;
11121;SDS011;5615;49.304;10.576;2022-09-04T07:16:18;11.00;;;8.38;;
11121;SDS011;5615;49.304;10.576;2022-09-04T07:19:04;11.05;;;8.63;;
11121;SDS011;5615;49.304;10.576;2022-09-04T07:21:43;9.38;;;8.50;;
11121;SDS011;5615;49.304;10.576;2022-09-04T07:24:34;9.32;;;8.43;;
11121;SDS011;5615;49.304;10.576;2022-09-04T07:27:13;10.65;;;9.65;;
11121;SDS011;5615;49.304;10.576;2022-09-04T07:29:46;10.25;;;8.52;;
11121;SDS011;5615;49.304;10.576;2022-09-04T07:32:19;9.43;;;8.52;;
11121;SDS011;5615;49.304;10.576;2022-09-04T07:34:52;11.00;;;9.90;;
11121;SDS011;5615;49.304;10.576;2022-09-04T07:37:25;10.02;;;9.02;;
11121;SDS011;5615;49.304;10.576;2022-09-04T07:40:03;9.60;;;8.70;;
11121;SDS011;5615;49.304;10.576;2022-09-04T07:42:37;9.85;;;8.85;;
11121;SDS011;5615;49.304;10.576;2022-09-04T07:45:11;10.73;;;8.55;;
11121;SDS011;5615;49.304;10.576;2022-09-04T07:47:48;9.05;;;8.20;;
11121;SDS011;5615;49.304;10.576;2022-09-04T07:50:24;8.70;;;7.90;;
11121;SDS011;5615;49.304;10.576;2022-09-04T07:53:01;10.98;;;8.77;;
11121;SDS011;5615;49.304;10.576;2022-09-04T07:55:44;10.13;;;8.50;;
11121;SDS011;5615;49.304;10.576;2022-09-04T07:58:25;9.63;;;8.68;;
11121;SDS011;5615;49.304;10.576;2022-09-04T08:01:19;8.95;;;8.05;;
11121;SDS011;5615;49.304;10.576;2022-09-04T08:07:11;8.07;;;7.30;;
11121;SDS011;5615;49.304;10.576;2022-09-04T08:10:01;7.93;;;7.20;;
11121;SDS011;5615;49.304;10.576;2022-09-04T08:12:41;12.13;;;6.63;;
11121;SDS011;5615;49.304;10.576;2022-09-04T08:15:21;7.50;;;6.80;;
11121;SDS011;5615;49.304;10.576;2022-09-04T08:18:01;6.28;;;5.68;;
11121;SDS011;5615;49.304;10.576;2022-09-04T08:20:50;5.97;;;5.47;;
11121;SDS011;5615;49.304;10.576;2022-09-04T08:23:34;6.22;;;5.43;;
11121;SDS011;5615;49.304;10.576;2022-09-04T08:26:25;5.90;;;5.40;;
11121;SDS011;5615;49.304;10.576;2022-09-04T08:29:01;5.70;;;5.05;;
11121;SDS011;5615;49.304;10.576;2022-09-04T08:31:49;5.00;;;4.60;;
11121;SDS011;5615;49.304;10.576;2022-09-04T08:34:33;6.38;;;4.60;;
11121;SDS011;5615;49.304;10.576;2022-09-04T08:37:15;5.00;;;4.50;;
11121;SDS011;5615;49.304;10.576;2022-09-04T08:39:52;5.32;;;4.25;;
11121;SDS011;5615;49.304;10.576;2022-09-04T08:42:49;5.88;;;5.13;;
11121;SDS011;5615;49.304;10.576;2022-09-04T08:45:54;4.93;;;4.53;;
11121;SDS011;5615;49.304;10.576;2022-09-04T08:48:48;4.32;;;3.92;;
11121;SDS011;5615;49.304;10.576;2022-09-04T08:57:51;4.47;;;4.07;;
11121;SDS011;5615;49.304;10.576;2022-09-04T09:00:48;3.63;;;3.33;;
11121;SDS011;5615;49.304;10.576;2022-09-04T09:03:52;3.00;;;2.80;;
11121;SDS011;5615;49.304;10.576;2022-09-04T09:06:50;4.72;;;3.08;;
11121;SDS011;5615;49.304;10.576;2022-09-04T09:12:29;2.72;;;2.53;;
11121;SDS011;5615;49.304;10.576;2022-09-04T09:15:24;2.53;;;2.33;;
11121;SDS011;5615;49.304;10.576;2022-09-04T09:18:11;4.07;;;2.40;;
11121;SDS011;5615;49.304;10.576;2022-09-04T09:20:51;2.80;;;2.20;;
11121;SDS011;5615;49.304;10.576;2022-09-04T09:23:31;2.92;;;2.50;;
11121;SDS011;5615;49.304;10.576;2022-09-04T09:26:26;2.90;;;2.70;;
11121;SDS011;5615;49.304;10.576;2022-09-04T09:38:24;2.50;;;1.90;;
11121;SDS011;5615;49.304;10.576;2022-09-04T09:41:31;2.13;;;1.92;;
11121;SDS011;5615;49.304;10.576;2022-09-04T09:47:40;1.90;;;1.80;;
11121;SDS011;5615;49.304;10.576;2022-09-04T09:50:31;2.17;;;1.98;;
11121;SDS011;5615;49.304;10.576;2022-09-04T09:53:33;1.95;;;1.85;;
11121;SDS011;5615;49.304;10.576;2022-09-04T09:56:40;2.05;;;1.95;;
11121;SDS011;5615;49.304;10.576;2022-09-04T09:59:54;3.28;;;2.20;;
11121;SDS011;5615;49.304;10.576;2022-09-04T10:02:41;3.35;;;1.90;;
11121;SDS011;5615;49.304;10.576;2022-09-04T10:05:33;5.15;;;2.30;;
11121;SDS011;5615;49.304;10.576;2022-09-04T10:11:16;2.47;;;2.28;;
11121;SDS011;5615;49.304;10.576;2022-09-04T10:14:04;2.53;;;2.33;;
11121;SDS011;5615;49.304;10.576;2022-09-04T10:23:25;2.60;;;2.40;;
11121;SDS011;5615;49.304;10.576;2022-09-04T10:26:17;3.72;;;2.83;;
11121;SDS011;5615;49.304;10.576;2022-09-04T10:29:20;2.83;;;2.25;;
11121;SDS011;5615;49.304;10.576;2022-09-04T10:32:01;2.40;;;2.20;;
11121;SDS011;5615;49.304;10.576;2022-09-04T10:35:00;2.25;;;2.05;;
11121;SDS011;5615;49.304;10.576;2022-09-04T10:37:54;3.20;;;2.45;;
11121;SDS011;5615;49.304;10.576;2022-09-04T10:40:33;2.70;;;2.50;;
11121;SDS011;5615;49.304;10.576;2022-09-04T10:43:29;2.85;;;2.40;;
11121;SDS011;5615;49.304;10.576;2022-09-04T10:46:23;3.88;;;2.85;;
11121;SDS011;5615;49.304;10.576;2022-09-04T10:49:05;2.88;;;2.55;;
11121;SDS011;5615;49.304;10.576;2022-09-04T10:52:03;2.50;;;2.30;;
11121;SDS011;5615;49.304;10.576;2022-09-04T11:00:53;2.65;;;1.90;;
11121;SDS011;5615;49.304;10.576;2022-09-04T11:03:49;1.80;;;1.70;;
11121;SDS011;5615;49.304;10.576;2022-09-04T11:06:34;2.08;;;1.75;;
11121;SDS011;5615;49.304;10.576;2022-09-04T11:09:40;1.50;;;1.40;;
11121;SDS011;5615;49.304;10.576;2022-09-04T11:12:25;1.80;;;1.40;;
11121;SDS011;5615;49.304;10.576;2022-09-04T11:15:11;2.70;;;1.60;;
11121;SDS011;5615;49.304;10.576;2022-09-04T11:18:04;2.08;;;1.73;;
11121;SDS011;5615;49.304;10.576;2022-09-04T11:20:54;1.85;;;1.75;;
11121;SDS011;5615;49.304;10.576;2022-09-04T11:24:02;1.70;;;1.60;;
11121;SDS011;5615;49.304;10.576;2022-09-04T11:30:13;3.08;;;1.73;;
11121;SDS011;5615;49.304;10.576;2022-09-04T11:32:59;2.00;;;1.80;;
11121;SDS011;5615;49.304;10.576;2022-09-04T11:45:15;1.70;;;1.60;;
11121;SDS011;5615;49.304;10.576;2022-09-04T11:51:04;1.90;;;1.80;;
11121;SDS011;5615;49.304;10.576;2022-09-04T11:54:03;1.95;;;1.67;;
11121;SDS011;5615;49.304;10.576;2022-09-04T11:57:06;2.70;;;1.65;;
11121;SDS011;5615;49.304;10.576;2022-09-04T11:59:42;2.85;;;1.70;;
11121;SDS011;5615;49.304;10.576;2022-09-04T12:02:35;4.03;;;1.80;;
11121;SDS011;5615;49.304;10.576;2022-09-04T12:05:18;3.22;;;2.05;;
11121;SDS011;5615;49.304;10.576;2022-09-04T12:08:04;2.22;;;1.80;;
11121;SDS011;5615;49.304;10.576;2022-09-04T12:10:52;1.80;;;1.70;;
11121;SDS011;5615;49.304;10.576;2022-09-04T12:13:30;3.13;;;1.75;;
11121;SDS011;5615;49.304;10.576;2022-09-04T12:22:16;2.10;;;1.90;;
11121;SDS011;5615;49.304;10.576;2022-09-04T12:25:03;3.15;;;1.80;;
11121;SDS011;5615;49.304;10.576;2022-09-04T12:27:49;3.88;;;1.85;;
11121;SDS011;5615;49.304;10.576;2022-09-04T12:30:29;1.90;;;1.70;;
11121;SDS011;5615;49.304;10.576;2022-09-04T12:33:05;1.90;;;1.80;;
11121;SDS011;5615;49.304;10.576;2022-09-04T12:36:11;4.13;;;1.90;;
11121;SDS011;5615;49.304;10.576;2022-09-04T12:41:56;3.65;;;2.03;;
11121;SDS011;5615;49.304;10.576;2022-09-04T12:44:33;2.15;;;2.00;;
11121;SDS011;5615;49.304;10.576;2022-09-04T12:47:11;2.10;;;1.90;;
11121;SDS011;5615;49.304;10.576;2022-09-04T12:50:08;2.55;;;2.15;;
11121;SDS011;5615;49.304;10.576;2022-09-04T12:52:56;2.00;;;1.90;;
11121;SDS011;5615;49.304;10.576;2022-09-04T12:55:43;2.33;;;2.13;;
11121;SDS011;5615;49.304;10.576;2022-09-04T12:58:16;2.25;;;2.00;;
11121;SDS011;5615;49.304;10.576;2022-09-04T13:01:00;2.40;;;2.20;;
11121;SDS011;5615;49.304;10.576;2022-09-04T13:03:39;2.83;;;2.00;;
11121;SDS011;5615;49.304;10.576;2022-09-04T13:06:18;2.47;;;2.28;;
11121;SDS011;5615;49.304;10.576;2022-09-04T13:08:55;2.15;;;2.03;;
11121;SDS011;5615;49.304;10.576;2022-09-04T13:11:40;2.05;;;1.95;;
11121;SDS011;5615;49.304;10.576;2022-09-04T13:14:25;2.35;;;2.15;;
11121;SDS011;5615;49.304;10.576;2022-09-04T13:17:06;2.13;;;1.92;;
11121;SDS011;5615;49.304;10.576;2022-09-04T13:19:42;2.17;;;2.00;;
11121;SDS011;5615;49.304;10.576;2022-09-04T13:22:20;2.22;;;2.00;;
11121;SDS011;5615;49.304;10.576;2022-09-04T13:24:58;1.85;;;1.75;;
11121;SDS011;5615;49.304;10.576;2022-09-04T13:27:38;3.45;;;2.20;;
11121;SDS011;5615;49.304;10.576;2022-09-04T13:30:15;1.92;;;1.80;;
11121;SDS011;5615;49.304;10.576;2022-09-04T13:35:49;2.40;;;2.10;;
11121;SDS011;5615;49.304;10.576;2022-09-04T13:41:20;2.97;;;2.30;;
11121;SDS011;5615;49.304;10.576;2022-09-04T13:44:13;2.67;;;2.35;;
11121;SDS011;5615;49.304;10.576;2022-09-04T13:46:57;2.25;;;2.05;;
11121;SDS011;5615;49.304;10.576;2022-09-04T13:49:28;2.22;;;2.03;;
11121;SDS011;5615;49.304;10.576;2022-09-04T13:52:00;1.98;;;1.80;;
11121;SDS011;5615;49.304;10.576;2022-09-04T13:54:32;2.85;;;2.00;;
11121;SDS011;5615;49.304;10.576;2022-09-04T13:57:05;1.98;;;1.85;;
11121;SDS011;5615;49.304;10.576;2022-09-04T13:59:35;3.17;;;1.85;;
11121;SDS011;5615;49.304;10.576;2022-09-04T14:02:03;2.63;;;2.08;;
11121;SDS011;5615;49.304;10.576;2022-09-04T14:04:34;2.83;;;1.98;;
11121;SDS011;5615;49.304;10.576;2022-09-04T14:07:04;2.20;;;1.70;;
11121;SDS011;5615;49.304;10.576;2022-09-04T14:09:39;1.98;;;1.77;;
11121;SDS011;5615;49.304;10.576;2022-09-04T14:12:26;1.95;;;1.83;;
11121;SDS011;5615;49.304;10.576;2022-09-04T14:15:17;2.33;;;1.90;;
11121;SDS011;5615;49.304;10.576;2022-09-04T14:18:04;1.70;;;1.60;;
11121;SDS011;5615;49.304;10.576;2022-09-04T14:20:43;1.98;;;1.88;;
11121;SDS011;5615;49.304;10.576;2022-09-04T14:23:16;2.95;;;1.67;;
11121;SDS011;5615;49.304;10.576;2022-09-04T14:25:52;1.80;;;1.70;;
11121;SDS011;5615;49.304;10.576;2022-09-04T14:28:26;2.10;;;1.90;;
11121;SDS011;5615;49.304;10.576;2022-09-04T14:30:59;2.30;;;1.80;;
11121;SDS011;5615;49.304;10.576;2022-09-04T14:33:33;2.45;;;1.90;;
11121;SDS011;5615;49.304;10.576;2022-09-04T14:36:11;2.47;;;1.55;;
11121;SDS011;5615;49.304;10.576;2022-09-04T14:38:48;3.20;;;1.60;;
11121;SDS011;5615;49.304;10.576;2022-09-04T14:41:26;1.80;;;1.70;;
11121;SDS011;5615;49.304;10.576;2022-09-04T14:44:08;1.88;;;1.67;;
11121;SDS011;5615;49.304;10.576;2022-09-04T14:46:50;2.65;;;1.65;;
11121;SDS011;5615;49.304;10.576;2022-09-04T14:49:27;2.17;;;1.70;;
11121;SDS011;5615;49.304;10.576;2022-09-04T14:51:56;1.70;;;1.60;;
11121;SDS011;5615;49.304;10.576;2022-09-04T14:54:28;2.20;;;1.85;;
11121;SDS011;5615;49.304;10.576;2022-09-04T14:56:59;2.13;;;1.70;;
11121;SDS011;5615;49.304;10.576;2022-09-04T14:59:32;1.98;;;1.70;;
11121;SDS011;5615;49.304;10.576;2022-09-04T15:02:11;1.70;;;1.60;;
11121;SDS011;5615;49.304;10.576;2022-09-04T15:04:44;2.65;;;1.60;;
11121;SDS011;5615;49.304;10.576;2022-09-04T15:07:20;2.42;;;1.70;;
11121;SDS011;5615;49.304;10.576;2022-09-04T15:10:02;1.90;;;1.67;;
11121;SDS011;5615;49.304;10.576;2022-09-04T15:12:35;1.98;;;1.70;;
11121;SDS011;5615;49.304;10.576;2022-09-04T15:15:06;1.60;;;1.50;;
11121;SDS011;5615;49.304;10.576;2022-09-04T15:17:42;2.05;;;1.85;;
11121;SDS011;5615;49.304;10.576;2022-09-04T15:20:17;1.75;;;1.65;;
11121;SDS011;5615;49.304;10.576;2022-09-04T15:22:48;1.90;;;1.80;;
11121;SDS011;5615;49.304;10.576;2022-09-04T15:25:30;3.55;;;2.20;;
11121;SDS011;5615;49.304;10.576;2022-09-04T15:28:04;2.17;;;1.70;;
11121;SDS011;5615;49.304;10.576;2022-09-04T15:30:38;2.83;;;1.70;;
11121;SDS011;5615;49.304;10.576;2022-09-04T15:33:09;3.83;;;1.90;;
11121;SDS011;5615;49.304;10.576;2022-09-04T15:35:37;2.80;;;1.60;;
11121;SDS011;5615;49.304;10.576;2022-09-04T15:38:06;2.00;;;1.50;;
11121;SDS011;5615;49.304;10.576;2022-09-04T15:40:45;2.35;;;1.73;;
11121;SDS011;5615;49.304;10.576;2022-09-04T15:43:17;2.58;;;1.70;;
11121;SDS011;5615;49.304;10.576;2022-09-04T15:45:55;2.10;;;1.60;;
11121;SDS011;5615;49.304;10.576;2022-09-04T15:48:28;2.75;;;1.60;;
11121;SDS011;5615;49.304;10.576;2022-09-04T15:51:10;2.17;;;1.60;;
11121;SDS011;5615;49.304;10.576;2022-09-04T15:53:44;1.77;;;1.60;;
11121;SDS011;5615;49.304;10.576;2022-09-04T15:56:29;1.60;;;1.50;;
11121;SDS011;5615;49.304;10.576;2022-09-04T15:59:02;1.60;;;1.50;;
11121;SDS011;5615;49.304;10.576;2022-09-04T16:01:40;2.65;;;1.60;;
11121;SDS011;5615;49.304;10.576;2022-09-04T16:04:14;1.80;;;1.70;;
11121;SDS011;5615;49.304;10.576;2022-09-04T16:06:47;1.90;;;1.80;;
11121;SDS011;5615;49.304;10.576;2022-09-04T16:09:19;1.60;;;1.50;;
11121;SDS011;5615;49.304;10.576;2022-09-04T16:11:53;2.03;;;1.60;;
11121;SDS011;5615;49.304;10.576;2022-09-04T16:14:29;1.60;;;1.48;;
11121;SDS011;5615;49.304;10.576;2022-09-04T16:17:05;2.67;;;1.50;;
11121;SDS011;5615;49.304;10.576;2022-09-04T16:19:38;1.73;;;1.60;;
11121;SDS011;5615;49.304;10.576;2022-09-04T16:22:16;2.53;;;1.35;;
11121;SDS011;5615;49.304;10.576;2022-09-04T16:24:53;1.90;;;1.80;;
11121;SDS011;5615;49.304;10.576;2022-09-04T16:27:28;1.90;;;1.70;;
11121;SDS011;5615;49.304;10.576;2022-09-04T16:29:57;1.85;;;1.75;;
11121;SDS011;5615;49.304;10.576;2022-09-04T16:32:28;1.73;;;1.60;;
11121;SDS011;5615;49.304;10.576;2022-09-04T16:34:58;3.03;;;2.83;;
11121;SDS011;5615;49.304;10.576;2022-09-04T16:37:29;2.10;;;1.70;;
11121;SDS011;5615;49.304;10.576;2022-09-04T16:40:02;1.70;;;1.60;;
11121;SDS011;5615;49.304;10.576;2022-09-04T16:42:37;2.15;;;1.88;;
11121;SDS011;5615;49.304;10.576;2022-09-04T16:45:09;2.22;;;2.00;;
11121;SDS011;5615;49.304;10.576;2022-09-04T16:47:44;1.85;;;1.55;;
11121;SDS011;5615;49.304;10.576;2022-09-04T16:50:16;1.95;;;1.75;;
11121;SDS011;5615;49.304;10.576;2022-09-04T16:52:52;1.92;;;1.70;;
11121;SDS011;5615;49.304;10.576;2022-09-04T16:55:28;1.80;;;1.70;;
11121;SDS011;5615;49.304;10.576;2022-09-04T16:58:09;3.40;;;1.95;;
11121;SDS011;5615;49.304;10.576;2022-09-04T17:00:53;1.75;;;1.65;;
11121;SDS011;5615;49.304;10.576;2022-09-04T17:03:27;1.90;;;1.65;;
11121;SDS011;5615;49.304;10.576;2022-09-04T17:06:06;3.28;;;1.70;;
11121;SDS011;5615;49.304;10.576;2022-09-04T17:08:44;2.45;;;1.83;;
11121;SDS011;5615;49.304;10.576;2022-09-04T17:11:16;2.55;;;2.28;;
11121;SDS011;5615;49.304;10.576;2022-09-04T17:13:54;3.05;;;1.95;;
11121;SDS011;5615;49.304;10.576;2022-09-04T17:16:30;2.42;;;1.85;;
11121;SDS011;5615;49.304;10.576;2022-09-04T17:19:02;3.65;;;1.88;;
11121;SDS011;5615;49.304;10.576;2022-09-04T17:21:30;5.55;;;1.88;;
11121;SDS011;5615;49.304;10.576;2022-09-04T17:24:20;8.63;;;1.77;;
11121;SDS011;5615;49.304;10.576;2022-09-04T17:26:52;3.40;;;1.98;;
11121;SDS011;5615;49.304;10.576;2022-09-04T17:29:24;1.92;;;1.70;;